sensor_id;sensor_type;location;lat;lon;timestamp;temperature;humidity
32293;DHT22;43233;48.608;8.838;2022-08-16T00:00:20;17.40;89.80
32293;DHT22;43233;48.608;8.838;2022-08-16T00:02:45;17.50;90.70
32293;DHT22;43233;48.608;8.838;2022-08-16T00:05:12;17.50;90.10
32293;DHT22;43233;48.608;8.838;2022-08-16T00:07:39;17.60;89.30
32293;DHT22;43233;48.608;8.838;2022-08-16T00:10:08;17.70;89.30
32293;DHT22;43233;48.608;8.838;2022-08-16T00:12:34;17.70;88.70
32293;DHT22;43233;48.608;8.838;2022-08-16T00:15:05;17.80;88.40
32293;DHT22;43233;48.608;8.838;2022-08-16T00:17:32;17.80;88.80
32293;DHT22;43233;48.608;8.838;2022-08-16T00:19:58;17.70;88.70
32293;DHT22;43233;48.608;8.838;2022-08-16T00:22:24;17.70;89.70
32293;DHT22;43233;48.608;8.838;2022-08-16T00:24:50;17.70;89.50
32293;DHT22;43233;48.608;8.838;2022-08-16T00:27:16;17.80;89.30
32293;DHT22;43233;48.608;8.838;2022-08-16T00:29:41;17.80;89.20
32293;DHT22;43233;48.608;8.838;2022-08-16T00:32:08;17.90;89.10
32293;DHT22;43233;48.608;8.838;2022-08-16T00:34:36;17.90;88.70
32293;DHT22;43233;48.608;8.838;2022-08-16T00:37:02;17.80;89.80
32293;DHT22;43233;48.608;8.838;2022-08-16T00:39:28;17.80;89.80
32293;DHT22;43233;48.608;8.838;2022-08-16T00:41:53;17.80;90.00
32293;DHT22;43233;48.608;8.838;2022-08-16T00:44:21;17.80;90.70
32293;DHT22;43233;48.608;8.838;2022-08-16T00:46:54;17.80;90.50
32293;DHT22;43233;48.608;8.838;2022-08-16T00:49:22;17.70;91.20
32293;DHT22;43233;48.608;8.838;2022-08-16T00:51:49;17.70;91.10
32293;DHT22;43233;48.608;8.838;2022-08-16T00:54:14;17.80;91.00
32293;DHT22;43233;48.608;8.838;2022-08-16T00:56:43;17.80;91.20
32293;DHT22;43233;48.608;8.838;2022-08-16T00:59:12;17.70;91.30
32293;DHT22;43233;48.608;8.838;2022-08-16T01:01:41;17.70;91.70
32293;DHT22;43233;48.608;8.838;2022-08-16T01:04:08;17.70;91.80
32293;DHT22;43233;48.608;8.838;2022-08-16T01:06:35;17.80;91.10
32293;DHT22;43233;48.608;8.838;2022-08-16T01:09:02;17.70;92.00
32293;DHT22;43233;48.608;8.838;2022-08-16T01:11:32;17.70;92.20
32293;DHT22;43233;48.608;8.838;2022-08-16T01:14:25;17.70;92.20
32293;DHT22;43233;48.608;8.838;2022-08-16T01:16:54;17.70;92.60
32293;DHT22;43233;48.608;8.838;2022-08-16T01:19:23;17.60;93.20
32293;DHT22;43233;48.608;8.838;2022-08-16T01:25:09;17.60;93.40
32293;DHT22;43233;48.608;8.838;2022-08-16T01:27:43;17.60;94.00
32293;DHT22;43233;48.608;8.838;2022-08-16T01:32:39;17.60;94.00
32293;DHT22;43233;48.608;8.838;2022-08-16T01:35:29;17.60;93.80
32293;DHT22;43233;48.608;8.838;2022-08-16T01:38:25;17.60;93.90
32293;DHT22;43233;48.608;8.838;2022-08-16T01:40:54;17.70;93.90
32293;DHT22;43233;48.608;8.838;2022-08-16T01:43:22;17.70;93.60
32293;DHT22;43233;48.608;8.838;2022-08-16T01:45:52;17.70;93.00
32293;DHT22;43233;48.608;8.838;2022-08-16T01:48:18;17.70;93.10
32293;DHT22;43233;48.608;8.838;2022-08-16T01:50:44;17.70;93.10
32293;DHT22;43233;48.608;8.838;2022-08-16T01:53:09;17.70;93.00
32293;DHT22;43233;48.608;8.838;2022-08-16T01:55:36;17.60;92.70
32293;DHT22;43233;48.608;8.838;2022-08-16T01:58:03;17.70;92.80
32293;DHT22;43233;48.608;8.838;2022-08-16T02:00:29;17.60;92.70
32293;DHT22;43233;48.608;8.838;2022-08-16T02:02:54;17.70;92.50
32293;DHT22;43233;48.608;8.838;2022-08-16T02:05:20;17.70;91.40
32293;DHT22;43233;48.608;8.838;2022-08-16T02:07:46;17.80;91.20
32293;DHT22;43233;48.608;8.838;2022-08-16T02:10:12;17.80;91.10
32293;DHT22;43233;48.608;8.838;2022-08-16T02:12:38;17.80;91.10
32293;DHT22;43233;48.608;8.838;2022-08-16T02:15:04;17.80;91.10
32293;DHT22;43233;48.608;8.838;2022-08-16T02:17:32;17.90;90.90
32293;DHT22;43233;48.608;8.838;2022-08-16T02:19:58;17.80;90.50
32293;DHT22;43233;48.608;8.838;2022-08-16T02:22:24;17.90;90.50
32293;DHT22;43233;48.608;8.838;2022-08-16T02:24:50;17.90;90.10
32293;DHT22;43233;48.608;8.838;2022-08-16T02:27:16;17.90;89.50
32293;DHT22;43233;48.608;8.838;2022-08-16T02:29:42;17.80;89.50
32293;DHT22;43233;48.608;8.838;2022-08-16T02:32:13;17.80;88.80
32293;DHT22;43233;48.608;8.838;2022-08-16T02:34:39;17.70;89.30
32293;DHT22;43233;48.608;8.838;2022-08-16T02:37:04;17.70;89.50
32293;DHT22;43233;48.608;8.838;2022-08-16T02:39:30;17.60;89.70
32293;DHT22;43233;48.608;8.838;2022-08-16T02:41:56;17.50;89.70
32293;DHT22;43233;48.608;8.838;2022-08-16T02:44:22;17.50;90.10
32293;DHT22;43233;48.608;8.838;2022-08-16T02:46:48;17.40;90.20
32293;DHT22;43233;48.608;8.838;2022-08-16T02:49:14;17.40;90.70
32293;DHT22;43233;48.608;8.838;2022-08-16T02:51:40;17.40;91.00
32293;DHT22;43233;48.608;8.838;2022-08-16T02:54:06;17.40;91.10
32293;DHT22;43233;48.608;8.838;2022-08-16T02:56:33;17.30;92.00
32293;DHT22;43233;48.608;8.838;2022-08-16T02:58:58;17.30;91.40
32293;DHT22;43233;48.608;8.838;2022-08-16T03:01:27;17.30;91.50
32293;DHT22;43233;48.608;8.838;2022-08-16T03:03:54;17.20;92.50
32293;DHT22;43233;48.608;8.838;2022-08-16T03:06:21;17.20;92.00
32293;DHT22;43233;48.608;8.838;2022-08-16T03:08:48;17.20;92.30
32293;DHT22;43233;48.608;8.838;2022-08-16T03:11:15;17.20;92.80
32293;DHT22;43233;48.608;8.838;2022-08-16T03:13:43;17.20;93.30
32293;DHT22;43233;48.608;8.838;2022-08-16T03:16:09;17.20;93.50
32293;DHT22;43233;48.608;8.838;2022-08-16T03:18:35;17.20;93.50
32293;DHT22;43233;48.608;8.838;2022-08-16T03:21:00;17.30;94.60
32293;DHT22;43233;48.608;8.838;2022-08-16T03:23:26;17.30;93.60
32293;DHT22;43233;48.608;8.838;2022-08-16T03:25:52;17.40;93.40
32293;DHT22;43233;48.608;8.838;2022-08-16T03:28:18;17.30;93.30
32293;DHT22;43233;48.608;8.838;2022-08-16T03:30:45;17.30;93.30
32293;DHT22;43233;48.608;8.838;2022-08-16T03:33:11;17.30;93.40
32293;DHT22;43233;48.608;8.838;2022-08-16T03:35:38;17.20;93.70
32293;DHT22;43233;48.608;8.838;2022-08-16T03:38:07;17.20;94.10
32293;DHT22;43233;48.608;8.838;2022-08-16T03:40:34;17.20;94.50
32293;DHT22;43233;48.608;8.838;2022-08-16T03:43:05;17.20;95.20
32293;DHT22;43233;48.608;8.838;2022-08-16T03:45:32;17.20;96.10
32293;DHT22;43233;48.608;8.838;2022-08-16T03:47:59;17.20;96.10
32293;DHT22;43233;48.608;8.838;2022-08-16T03:50:24;17.20;96.70
32293;DHT22;43233;48.608;8.838;2022-08-16T03:52:51;17.20;96.80
32293;DHT22;43233;48.608;8.838;2022-08-16T03:55:16;17.20;97.10
32293;DHT22;43233;48.608;8.838;2022-08-16T03:57:42;17.20;96.90
32293;DHT22;43233;48.608;8.838;2022-08-16T04:00:14;17.30;97.20
32293;DHT22;43233;48.608;8.838;2022-08-16T04:02:42;17.30;97.40
32293;DHT22;43233;48.608;8.838;2022-08-16T04:05:09;17.30;97.50
32293;DHT22;43233;48.608;8.838;2022-08-16T04:07:36;17.30;97.20
32293;DHT22;43233;48.608;8.838;2022-08-16T04:10:04;17.30;97.50
32293;DHT22;43233;48.608;8.838;2022-08-16T04:12:30;17.20;97.50
32293;DHT22;43233;48.608;8.838;2022-08-16T04:14:56;17.20;97.50
32293;DHT22;43233;48.608;8.838;2022-08-16T04:17:22;17.30;97.80
32293;DHT22;43233;48.608;8.838;2022-08-16T04:19:47;17.20;97.70
32293;DHT22;43233;48.608;8.838;2022-08-16T04:22:13;17.30;97.80
32293;DHT22;43233;48.608;8.838;2022-08-16T04:24:39;17.30;97.70
32293;DHT22;43233;48.608;8.838;2022-08-16T04:27:05;17.30;97.80
32293;DHT22;43233;48.608;8.838;2022-08-16T04:29:31;17.20;98.20
32293;DHT22;43233;48.608;8.838;2022-08-16T04:31:59;17.20;98.80
32293;DHT22;43233;48.608;8.838;2022-08-16T04:34:28;17.20;99.70
32293;DHT22;43233;48.608;8.838;2022-08-16T04:36:55;17.20;99.90
32293;DHT22;43233;48.608;8.838;2022-08-16T04:39:22;17.20;99.90
32293;DHT22;43233;48.608;8.838;2022-08-16T04:41:48;17.20;99.90
32293;DHT22;43233;48.608;8.838;2022-08-16T04:44:14;17.10;99.90
32293;DHT22;43233;48.608;8.838;2022-08-16T04:46:39;17.20;99.90
32293;DHT22;43233;48.608;8.838;2022-08-16T04:49:05;17.20;99.90
32293;DHT22;43233;48.608;8.838;2022-08-16T04:51:32;17.30;99.90
32293;DHT22;43233;48.608;8.838;2022-08-16T04:53:59;17.40;99.90
32293;DHT22;43233;48.608;8.838;2022-08-16T04:56:25;17.50;99.90
32293;DHT22;43233;48.608;8.838;2022-08-16T04:58:51;17.50;99.90
32293;DHT22;43233;48.608;8.838;2022-08-16T05:01:16;17.50;99.90
32293;DHT22;43233;48.608;8.838;2022-08-16T05:03:42;17.50;99.90
32293;DHT22;43233;48.608;8.838;2022-08-16T05:06:08;17.50;99.90
32293;DHT22;43233;48.608;8.838;2022-08-16T05:08:34;17.50;99.90
32293;DHT22;43233;48.608;8.838;2022-08-16T05:11:02;17.50;99.90
32293;DHT22;43233;48.608;8.838;2022-08-16T05:13:29;17.50;99.90
32293;DHT22;43233;48.608;8.838;2022-08-16T05:15:55;17.50;99.90
32293;DHT22;43233;48.608;8.838;2022-08-16T05:18:20;17.50;99.90
32293;DHT22;43233;48.608;8.838;2022-08-16T05:20:46;17.50;99.90
32293;DHT22;43233;48.608;8.838;2022-08-16T05:23:12;17.60;99.90
32293;DHT22;43233;48.608;8.838;2022-08-16T05:25:38;17.60;99.90
32293;DHT22;43233;48.608;8.838;2022-08-16T05:28:04;17.60;99.90
32293;DHT22;43233;48.608;8.838;2022-08-16T05:30:30;17.50;99.90
32293;DHT22;43233;48.608;8.838;2022-08-16T05:32:55;17.50;99.90
32293;DHT22;43233;48.608;8.838;2022-08-16T05:35:21;17.50;99.90
32293;DHT22;43233;48.608;8.838;2022-08-16T05:37:47;17.50;99.90
32293;DHT22;43233;48.608;8.838;2022-08-16T05:40:13;17.50;99.90
32293;DHT22;43233;48.608;8.838;2022-08-16T05:42:39;17.50;99.90
32293;DHT22;43233;48.608;8.838;2022-08-16T05:45:05;17.40;99.90
32293;DHT22;43233;48.608;8.838;2022-08-16T05:47:31;17.50;99.90
32293;DHT22;43233;48.608;8.838;2022-08-16T05:49:57;17.50;99.90
32293;DHT22;43233;48.608;8.838;2022-08-16T05:52:23;17.50;99.90
32293;DHT22;43233;48.608;8.838;2022-08-16T05:54:49;17.40;99.90
32293;DHT22;43233;48.608;8.838;2022-08-16T05:57:16;17.50;99.90
32293;DHT22;43233;48.608;8.838;2022-08-16T05:59:46;17.50;99.90
32293;DHT22;43233;48.608;8.838;2022-08-16T06:02:13;17.50;99.90
32293;DHT22;43233;48.608;8.838;2022-08-16T06:04:38;17.50;99.90
32293;DHT22;43233;48.608;8.838;2022-08-16T06:07:05;17.60;99.90
32293;DHT22;43233;48.608;8.838;2022-08-16T06:09:31;17.70;99.90
32293;DHT22;43233;48.608;8.838;2022-08-16T06:11:57;17.80;99.90
32293;DHT22;43233;48.608;8.838;2022-08-16T06:14:26;18.00;99.90
32293;DHT22;43233;48.608;8.838;2022-08-16T06:16:52;18.10;99.90
32293;DHT22;43233;48.608;8.838;2022-08-16T06:19:18;18.20;99.90
32293;DHT22;43233;48.608;8.838;2022-08-16T06:21:45;18.20;99.90
32293;DHT22;43233;48.608;8.838;2022-08-16T06:24:11;18.30;99.90
32293;DHT22;43233;48.608;8.838;2022-08-16T06:26:37;18.30;99.90
32293;DHT22;43233;48.608;8.838;2022-08-16T06:29:02;18.40;99.90
32293;DHT22;43233;48.608;8.838;2022-08-16T06:31:28;18.50;99.90
32293;DHT22;43233;48.608;8.838;2022-08-16T06:33:54;18.60;99.90
32293;DHT22;43233;48.608;8.838;2022-08-16T06:36:20;18.60;99.90
32293;DHT22;43233;48.608;8.838;2022-08-16T06:38:45;18.80;99.90
32293;DHT22;43233;48.608;8.838;2022-08-16T06:41:11;18.90;99.90
32293;DHT22;43233;48.608;8.838;2022-08-16T06:43:37;19.00;99.30
32293;DHT22;43233;48.608;8.838;2022-08-16T06:46:05;19.00;99.30
32293;DHT22;43233;48.608;8.838;2022-08-16T06:48:32;19.00;98.30
32293;DHT22;43233;48.608;8.838;2022-08-16T06:50:58;19.10;98.60
32293;DHT22;43233;48.608;8.838;2022-08-16T06:53:24;19.10;98.30
32293;DHT22;43233;48.608;8.838;2022-08-16T06:55:49;19.20;97.00
32293;DHT22;43233;48.608;8.838;2022-08-16T06:58:15;19.20;95.60
32293;DHT22;43233;48.608;8.838;2022-08-16T07:00:41;19.30;95.90
32293;DHT22;43233;48.608;8.838;2022-08-16T07:03:07;19.30;93.10
32293;DHT22;43233;48.608;8.838;2022-08-16T07:05:35;19.40;93.20
32293;DHT22;43233;48.608;8.838;2022-08-16T07:08:01;19.40;91.40
32293;DHT22;43233;48.608;8.838;2022-08-16T07:10:28;19.50;91.20
32293;DHT22;43233;48.608;8.838;2022-08-16T07:12:54;19.50;89.90
32293;DHT22;43233;48.608;8.838;2022-08-16T07:15:20;19.60;88.60
32293;DHT22;43233;48.608;8.838;2022-08-16T07:17:45;19.70;88.30
32293;DHT22;43233;48.608;8.838;2022-08-16T07:20:14;19.70;87.90
32293;DHT22;43233;48.608;8.838;2022-08-16T07:22:39;19.80;87.40
32293;DHT22;43233;48.608;8.838;2022-08-16T07:25:11;19.80;86.90
32293;DHT22;43233;48.608;8.838;2022-08-16T07:27:39;19.80;87.10
32293;DHT22;43233;48.608;8.838;2022-08-16T07:30:07;19.90;86.80
32293;DHT22;43233;48.608;8.838;2022-08-16T07:32:33;20.00;86.00
32293;DHT22;43233;48.608;8.838;2022-08-16T07:34:59;20.10;85.80
32293;DHT22;43233;48.608;8.838;2022-08-16T07:37:24;20.20;84.90
32293;DHT22;43233;48.608;8.838;2022-08-16T07:39:50;20.30;84.20
32293;DHT22;43233;48.608;8.838;2022-08-16T07:42:16;20.40;80.70
32293;DHT22;43233;48.608;8.838;2022-08-16T07:44:42;20.60;80.40
32293;DHT22;43233;48.608;8.838;2022-08-16T07:47:07;20.60;79.00
32293;DHT22;43233;48.608;8.838;2022-08-16T07:49:33;20.60;80.10
32293;DHT22;43233;48.608;8.838;2022-08-16T07:51:59;20.70;80.30
32293;DHT22;43233;48.608;8.838;2022-08-16T07:54:24;20.80;77.90
32293;DHT22;43233;48.608;8.838;2022-08-16T07:56:51;20.70;77.50
32293;DHT22;43233;48.608;8.838;2022-08-16T07:59:16;20.80;78.10
32293;DHT22;43233;48.608;8.838;2022-08-16T08:01:42;20.90;78.60
32293;DHT22;43233;48.608;8.838;2022-08-16T08:04:10;20.90;77.70
32293;DHT22;43233;48.608;8.838;2022-08-16T08:06:39;21.00;76.50
32293;DHT22;43233;48.608;8.838;2022-08-16T08:09:04;21.00;76.60
32293;DHT22;43233;48.608;8.838;2022-08-16T08:11:30;21.20;75.80
32293;DHT22;43233;48.608;8.838;2022-08-16T08:13:58;21.20;74.40
32293;DHT22;43233;48.608;8.838;2022-08-16T08:16:25;21.20;74.60
32293;DHT22;43233;48.608;8.838;2022-08-16T08:18:50;21.20;74.10
32293;DHT22;43233;48.608;8.838;2022-08-16T08:21:17;21.10;74.10
32293;DHT22;43233;48.608;8.838;2022-08-16T08:23:44;21.20;74.10
32293;DHT22;43233;48.608;8.838;2022-08-16T08:26:10;21.30;74.20
32293;DHT22;43233;48.608;8.838;2022-08-16T08:28:36;21.40;68.80
32293;DHT22;43233;48.608;8.838;2022-08-16T08:31:05;21.40;71.20
32293;DHT22;43233;48.608;8.838;2022-08-16T08:33:31;21.30;70.10
32293;DHT22;43233;48.608;8.838;2022-08-16T08:35:59;21.40;69.30
32293;DHT22;43233;48.608;8.838;2022-08-16T08:38:25;21.40;69.60
32293;DHT22;43233;48.608;8.838;2022-08-16T08:40:52;21.40;68.20
32293;DHT22;43233;48.608;8.838;2022-08-16T08:43:18;21.40;67.10
32293;DHT22;43233;48.608;8.838;2022-08-16T08:45:44;21.30;66.80
32293;DHT22;43233;48.608;8.838;2022-08-16T08:48:10;21.30;68.50
32293;DHT22;43233;48.608;8.838;2022-08-16T08:50:35;21.40;69.30
32293;DHT22;43233;48.608;8.838;2022-08-16T08:53:02;21.50;69.50
32293;DHT22;43233;48.608;8.838;2022-08-16T08:55:28;21.50;68.20
32293;DHT22;43233;48.608;8.838;2022-08-16T08:57:56;21.60;65.10
32293;DHT22;43233;48.608;8.838;2022-08-16T09:00:23;21.80;64.40
32293;DHT22;43233;48.608;8.838;2022-08-16T09:02:50;21.70;64.10
32293;DHT22;43233;48.608;8.838;2022-08-16T09:05:18;21.90;64.10
32293;DHT22;43233;48.608;8.838;2022-08-16T09:07:45;22.00;63.50
32293;DHT22;43233;48.608;8.838;2022-08-16T09:10:11;22.10;63.50
32293;DHT22;43233;48.608;8.838;2022-08-16T09:12:38;22.20;61.80
32293;DHT22;43233;48.608;8.838;2022-08-16T09:15:05;22.40;61.40
32293;DHT22;43233;48.608;8.838;2022-08-16T09:17:31;22.50;60.70
32293;DHT22;43233;48.608;8.838;2022-08-16T09:19:57;22.70;59.60
32293;DHT22;43233;48.608;8.838;2022-08-16T09:22:24;22.70;59.80
32293;DHT22;43233;48.608;8.838;2022-08-16T09:24:50;22.90;58.70
32293;DHT22;43233;48.608;8.838;2022-08-16T09:27:17;22.90;58.10
32293;DHT22;43233;48.608;8.838;2022-08-16T09:29:43;23.10;57.10
32293;DHT22;43233;48.608;8.838;2022-08-16T09:32:09;23.00;57.20
32293;DHT22;43233;48.608;8.838;2022-08-16T09:34:35;23.10;56.90
32293;DHT22;43233;48.608;8.838;2022-08-16T09:37:01;23.30;56.50
32293;DHT22;43233;48.608;8.838;2022-08-16T09:39:27;23.50;55.40
32293;DHT22;43233;48.608;8.838;2022-08-16T09:41:54;23.50;56.10
32293;DHT22;43233;48.608;8.838;2022-08-16T09:44:25;23.80;55.80
32293;DHT22;43233;48.608;8.838;2022-08-16T09:46:52;24.00;53.50
32293;DHT22;43233;48.608;8.838;2022-08-16T09:49:18;24.00;53.70
32293;DHT22;43233;48.608;8.838;2022-08-16T09:51:44;24.00;53.90
32293;DHT22;43233;48.608;8.838;2022-08-16T09:54:10;24.10;54.10
32293;DHT22;43233;48.608;8.838;2022-08-16T09:56:37;24.30;52.60
32293;DHT22;43233;48.608;8.838;2022-08-16T09:59:05;24.40;49.40
32293;DHT22;43233;48.608;8.838;2022-08-16T10:01:32;24.20;50.00
32293;DHT22;43233;48.608;8.838;2022-08-16T10:03:58;24.30;49.70
32293;DHT22;43233;48.608;8.838;2022-08-16T10:06:24;24.40;52.00
32293;DHT22;43233;48.608;8.838;2022-08-16T10:08:51;24.70;49.10
32293;DHT22;43233;48.608;8.838;2022-08-16T10:11:16;24.70;49.60
32293;DHT22;43233;48.608;8.838;2022-08-16T10:14:11;24.50;50.40
32293;DHT22;43233;48.608;8.838;2022-08-16T10:16:37;24.60;51.90
32293;DHT22;43233;48.608;8.838;2022-08-16T10:19:03;24.90;51.90
32293;DHT22;43233;48.608;8.838;2022-08-16T10:21:29;25.10;48.50
32293;DHT22;43233;48.608;8.838;2022-08-16T10:23:55;25.30;48.90
32293;DHT22;43233;48.608;8.838;2022-08-16T10:26:22;25.30;49.50
32293;DHT22;43233;48.608;8.838;2022-08-16T10:28:51;25.30;49.10
32293;DHT22;43233;48.608;8.838;2022-08-16T10:31:17;25.30;46.70
32293;DHT22;43233;48.608;8.838;2022-08-16T10:33:44;25.20;47.60
32293;DHT22;43233;48.608;8.838;2022-08-16T10:36:10;25.30;48.40
32293;DHT22;43233;48.608;8.838;2022-08-16T10:38:38;25.30;47.40
32293;DHT22;43233;48.608;8.838;2022-08-16T10:41:06;25.40;47.30
32293;DHT22;43233;48.608;8.838;2022-08-16T10:43:32;25.40;45.50
32293;DHT22;43233;48.608;8.838;2022-08-16T10:45:58;25.50;47.80
32293;DHT22;43233;48.608;8.838;2022-08-16T10:48:23;25.70;44.60
32293;DHT22;43233;48.608;8.838;2022-08-16T10:50:49;25.90;44.80
32293;DHT22;43233;48.608;8.838;2022-08-16T10:53:15;25.90;45.30
32293;DHT22;43233;48.608;8.838;2022-08-16T10:55:42;26.00;45.50
32293;DHT22;43233;48.608;8.838;2022-08-16T10:58:10;26.10;43.80
32293;DHT22;43233;48.608;8.838;2022-08-16T11:00:38;26.10;43.60
32293;DHT22;43233;48.608;8.838;2022-08-16T11:03:06;26.00;43.40
32293;DHT22;43233;48.608;8.838;2022-08-16T11:05:39;26.00;45.30
32293;DHT22;43233;48.608;8.838;2022-08-16T11:08:05;26.00;43.40
32293;DHT22;43233;48.608;8.838;2022-08-16T11:10:35;26.10;43.60
32293;DHT22;43233;48.608;8.838;2022-08-16T11:13:01;26.30;42.60
32293;DHT22;43233;48.608;8.838;2022-08-16T11:15:28;26.50;42.60
32293;DHT22;43233;48.608;8.838;2022-08-16T11:17:54;26.70;41.70
32293;DHT22;43233;48.608;8.838;2022-08-16T11:20:21;26.90;38.80
32293;DHT22;43233;48.608;8.838;2022-08-16T11:22:48;26.90;38.40
32293;DHT22;43233;48.608;8.838;2022-08-16T11:25:19;27.00;39.00
32293;DHT22;43233;48.608;8.838;2022-08-16T11:27:45;27.00;37.70
32293;DHT22;43233;48.608;8.838;2022-08-16T11:30:13;27.00;39.30
32293;DHT22;43233;48.608;8.838;2022-08-16T11:32:40;27.10;39.90
32293;DHT22;43233;48.608;8.838;2022-08-16T11:35:12;27.00;39.10
32293;DHT22;43233;48.608;8.838;2022-08-16T11:37:39;26.60;39.90
32293;DHT22;43233;48.608;8.838;2022-08-16T11:40:07;26.40;39.90
32293;DHT22;43233;48.608;8.838;2022-08-16T11:42:33;26.40;40.80
32293;DHT22;43233;48.608;8.838;2022-08-16T11:44:59;26.50;41.50
32293;DHT22;43233;48.608;8.838;2022-08-16T11:47:24;26.60;41.80
32293;DHT22;43233;48.608;8.838;2022-08-16T11:49:50;26.70;42.00
32293;DHT22;43233;48.608;8.838;2022-08-16T11:52:16;26.70;41.80
32293;DHT22;43233;48.608;8.838;2022-08-16T11:54:45;27.00;42.80
32293;DHT22;43233;48.608;8.838;2022-08-16T11:57:11;27.20;41.30
32293;DHT22;43233;48.608;8.838;2022-08-16T11:59:38;27.40;41.00
32293;DHT22;43233;48.608;8.838;2022-08-16T12:02:04;27.70;39.20
32293;DHT22;43233;48.608;8.838;2022-08-16T12:04:31;27.90;38.40
32293;DHT22;43233;48.608;8.838;2022-08-16T12:06:58;28.10;38.50
32293;DHT22;43233;48.608;8.838;2022-08-16T12:09:24;28.10;39.40
32293;DHT22;43233;48.608;8.838;2022-08-16T12:11:50;28.20;38.20
32293;DHT22;43233;48.608;8.838;2022-08-16T12:14:16;28.10;37.80
32293;DHT22;43233;48.608;8.838;2022-08-16T12:16:42;28.10;38.20
32293;DHT22;43233;48.608;8.838;2022-08-16T12:19:08;28.10;38.60
32293;DHT22;43233;48.608;8.838;2022-08-16T12:21:35;28.20;37.80
32293;DHT22;43233;48.608;8.838;2022-08-16T12:24:00;28.20;37.70
32293;DHT22;43233;48.608;8.838;2022-08-16T12:26:27;28.20;37.90
32293;DHT22;43233;48.608;8.838;2022-08-16T12:28:53;28.30;37.00
32293;DHT22;43233;48.608;8.838;2022-08-16T12:31:20;28.50;37.70
32293;DHT22;43233;48.608;8.838;2022-08-16T12:33:47;28.80;37.70
32293;DHT22;43233;48.608;8.838;2022-08-16T12:36:13;29.10;37.10
32293;DHT22;43233;48.608;8.838;2022-08-16T12:38:40;29.50;35.50
32293;DHT22;43233;48.608;8.838;2022-08-16T12:41:06;29.60;34.10
32293;DHT22;43233;48.608;8.838;2022-08-16T12:43:32;29.70;32.00
32293;DHT22;43233;48.608;8.838;2022-08-16T12:45:58;29.40;32.10
32293;DHT22;43233;48.608;8.838;2022-08-16T12:48:27;29.20;32.80
32293;DHT22;43233;48.608;8.838;2022-08-16T12:51:14;28.90;31.10
32293;DHT22;43233;48.608;8.838;2022-08-16T12:53:41;28.90;31.70
32293;DHT22;43233;48.608;8.838;2022-08-16T12:56:08;29.10;31.60
32293;DHT22;43233;48.608;8.838;2022-08-16T12:58:37;29.10;31.70
32293;DHT22;43233;48.608;8.838;2022-08-16T13:01:03;28.70;31.70
32293;DHT22;43233;48.608;8.838;2022-08-16T13:03:29;28.30;33.00
32293;DHT22;43233;48.608;8.838;2022-08-16T13:05:55;28.20;33.30
32293;DHT22;43233;48.608;8.838;2022-08-16T13:08:21;28.40;34.10
32293;DHT22;43233;48.608;8.838;2022-08-16T13:10:48;28.70;34.20
32293;DHT22;43233;48.608;8.838;2022-08-16T13:13:17;28.80;33.60
32293;DHT22;43233;48.608;8.838;2022-08-16T13:15:50;28.60;33.20
32293;DHT22;43233;48.608;8.838;2022-08-16T13:18:16;29.00;33.30
32293;DHT22;43233;48.608;8.838;2022-08-16T13:20:42;29.40;33.60
32293;DHT22;43233;48.608;8.838;2022-08-16T13:23:09;29.80;33.30
32293;DHT22;43233;48.608;8.838;2022-08-16T13:25:37;30.30;31.40
32293;DHT22;43233;48.608;8.838;2022-08-16T13:28:03;30.70;31.20
32293;DHT22;43233;48.608;8.838;2022-08-16T13:30:35;31.20;31.20
32293;DHT22;43233;48.608;8.838;2022-08-16T13:33:01;31.60;30.70
32293;DHT22;43233;48.608;8.838;2022-08-16T13:35:28;32.10;28.80
32293;DHT22;43233;48.608;8.838;2022-08-16T13:37:54;32.50;28.70
32293;DHT22;43233;48.608;8.838;2022-08-16T13:40:20;32.50;27.40
32293;DHT22;43233;48.608;8.838;2022-08-16T13:42:46;32.10;28.40
32293;DHT22;43233;48.608;8.838;2022-08-16T13:45:14;32.20;28.40
32293;DHT22;43233;48.608;8.838;2022-08-16T13:47:40;32.50;28.30
32293;DHT22;43233;48.608;8.838;2022-08-16T13:50:07;32.90;27.40
32293;DHT22;43233;48.608;8.838;2022-08-16T13:52:33;33.20;27.50
32293;DHT22;43233;48.608;8.838;2022-08-16T13:55:00;33.60;26.50
32293;DHT22;43233;48.608;8.838;2022-08-16T13:57:26;34.00;26.00
32293;DHT22;43233;48.608;8.838;2022-08-16T13:59:51;34.40;24.70
32293;DHT22;43233;48.608;8.838;2022-08-16T14:02:17;34.70;23.80
32293;DHT22;43233;48.608;8.838;2022-08-16T14:04:43;35.00;23.20
32293;DHT22;43233;48.608;8.838;2022-08-16T14:07:11;35.30;23.40
32293;DHT22;43233;48.608;8.838;2022-08-16T14:09:40;35.40;23.10
32293;DHT22;43233;48.608;8.838;2022-08-16T14:12:20;35.60;22.70
32293;DHT22;43233;48.608;8.838;2022-08-16T14:14:47;36.00;22.70
32293;DHT22;43233;48.608;8.838;2022-08-16T14:17:16;36.30;22.40
32293;DHT22;43233;48.608;8.838;2022-08-16T14:19:42;36.50;21.40
32293;DHT22;43233;48.608;8.838;2022-08-16T14:22:08;36.50;21.20
32293;DHT22;43233;48.608;8.838;2022-08-16T14:24:34;36.30;21.80
32293;DHT22;43233;48.608;8.838;2022-08-16T14:27:01;36.10;22.10
32293;DHT22;43233;48.608;8.838;2022-08-16T14:29:27;36.50;20.60
32293;DHT22;43233;48.608;8.838;2022-08-16T14:31:57;36.80;20.80
32293;DHT22;43233;48.608;8.838;2022-08-16T14:34:23;37.20;20.90
32293;DHT22;43233;48.608;8.838;2022-08-16T14:36:49;37.40;19.30
32293;DHT22;43233;48.608;8.838;2022-08-16T14:39:14;37.60;18.90
32293;DHT22;43233;48.608;8.838;2022-08-16T14:41:40;37.30;19.10
32293;DHT22;43233;48.608;8.838;2022-08-16T14:44:06;34.30;21.20
32293;DHT22;43233;48.608;8.838;2022-08-16T14:46:31;34.60;20.70
32293;DHT22;43233;48.608;8.838;2022-08-16T14:48:57;34.80;22.20
32293;DHT22;43233;48.608;8.838;2022-08-16T14:51:23;35.00;21.60
32293;DHT22;43233;48.608;8.838;2022-08-16T14:53:48;35.40;22.10
32293;DHT22;43233;48.608;8.838;2022-08-16T14:56:14;35.70;20.70
32293;DHT22;43233;48.608;8.838;2022-08-16T14:58:40;34.30;20.60
32293;DHT22;43233;48.608;8.838;2022-08-16T15:01:06;33.70;21.00
32293;DHT22;43233;48.608;8.838;2022-08-16T15:03:32;33.10;22.70
32293;DHT22;43233;48.608;8.838;2022-08-16T15:05:58;33.10;23.60
32293;DHT22;43233;48.608;8.838;2022-08-16T15:08:24;33.60;23.50
32293;DHT22;43233;48.608;8.838;2022-08-16T15:10:50;33.10;25.10
32293;DHT22;43233;48.608;8.838;2022-08-16T15:13:16;32.90;23.10
32293;DHT22;43233;48.608;8.838;2022-08-16T15:15:43;33.30;24.30
32293;DHT22;43233;48.608;8.838;2022-08-16T15:18:09;33.60;23.10
32293;DHT22;43233;48.608;8.838;2022-08-16T15:20:39;34.00;23.20
32293;DHT22;43233;48.608;8.838;2022-08-16T15:23:07;34.30;21.70
32293;DHT22;43233;48.608;8.838;2022-08-16T15:25:38;33.70;22.60
32293;DHT22;43233;48.608;8.838;2022-08-16T15:28:06;33.80;23.50
32293;DHT22;43233;48.608;8.838;2022-08-16T15:30:33;33.70;23.70
32293;DHT22;43233;48.608;8.838;2022-08-16T15:33:05;33.40;23.20